Time;durP1;ratioP1;P1;durP2;ratioP2;P2;SDS_P1;SDS_P2;PMS_P1;PMS_P2;Temp;Humidity;BMP_temperature;BMP_pressure;BME280_temperature;BME280_humidity;BME280_pressure;Samples;Min_cycle;Max_cycle;Signal;HPM_P1;HPM_P2
2021/09/13 00:01:43;;;;;;;2.45;0.90;;;;;;;;;;5016480;28;20548;-62
2021/09/13 00:04:09;;;;;;;2.72;0.90;;;;;;;;;;4984420;28;20038;-61
2021/09/13 00:06:35;;;;;;;2.70;1.00;;;;;;;;;;4984593;28;20043;-61
2021/09/13 00:09:01;;;;;;;2.72;1.08;;;;;;;;;;4984630;28;20038;-62
2021/09/13 00:11:27;;;;;;;3.10;1.00;;;;;;;;;;4984898;28;20039;-62
2021/09/13 00:13:52;;;;;;;3.47;1.05;;;;;;;;;;4985172;28;20061;-61
2021/09/13 00:16:18;;;;;;;2.70;0.90;;;;;;;;;;4989142;28;20050;-62
2021/09/13 00:18:44;;;;;;;10.10;5.13;;;;;;;;;;4982801;28;20047;-61
2021/09/13 00:21:10;;;;;;;4.07;1.55;;;;;;;;;;4986377;28;20038;-61
2021/09/13 00:23:36;;;;;;;2.78;1.02;;;;;;;;;;4984152;28;20054;-61
2021/09/13 00:26:01;;;;;;;3.75;1.30;;;;;;;;;;4985726;28;20440;-62
2021/09/13 00:28:27;;;;;;;2.50;1.05;;;;;;;;;;4990012;28;20034;-62
2021/09/13 00:30:53;;;;;;;3.17;1.20;;;;;;;;;;4990482;28;20054;-62
2021/09/13 00:33:19;;;;;;;2.70;0.90;;;;;;;;;;4988579;28;20090;-61
2021/09/13 00:35:45;;;;;;;3.30;1.20;;;;;;;;;;4990198;28;20054;-61
2021/09/13 00:38:10;;;;;;;3.33;1.27;;;;;;;;;;4988365;28;20253;-61
2021/09/13 00:40:36;;;;;;;3.75;1.30;;;;;;;;;;5009362;28;20049;-62
2021/09/13 00:43:03;;;;;;;3.67;1.40;;;;;;;;;;4987892;28;20050;-62
2021/09/13 00:45:29;;;;;;;4.57;1.30;;;;;;;;;;4988319;28;20038;-63
2021/09/13 00:47:55;;;;;;;3.83;1.30;;;;;;;;;;4988110;28;20120;-62
2021/09/13 00:50:21;;;;;;;2.90;1.10;;;;;;;;;;4987715;28;20046;-63
2021/09/13 00:52:50;;;;;;;3.08;1.20;;;;;;;;;;4987927;28;20041;-62
2021/09/13 00:55:16;;;;;;;2.78;1.10;;;;;;;;;;4988386;28;20042;-62
2021/09/13 00:57:42;;;;;;;4.40;1.08;;;;;;;;;;4987836;28;20055;-63
2021/09/13 01:00:09;;;;;;;4.63;1.33;;;;;;;;;;4986438;28;20109;-60
2021/09/13 01:02:35;;;;;;;4.82;1.75;;;;;;;;;;4987362;28;20057;-62
2021/09/13 01:05:04;;;;;;;4.95;1.60;;;;;;;;;;4989890;28;20053;-61
2021/09/13 01:07:31;;;;;;;3.75;1.40;;;;;;;;;;4987243;28;20129;-60
2021/09/13 01:10:00;;;;;;;3.92;1.30;;;;;;;;;;4986517;28;20039;-61
2021/09/13 01:12:26;;;;;;;3.83;1.50;;;;;;;;;;4987512;28;20043;-59
2021/09/13 01:14:52;;;;;;;3.67;1.10;;;;;;;;;;4987569;28;20038;-62
2021/09/13 01:17:17;;;;;;;4.75;1.50;;;;;;;;;;4990667;28;20046;-60
2021/09/13 01:19:43;;;;;;;3.22;1.20;;;;;;;;;;4986855;28;20053;-59
2021/09/13 01:22:11;;;;;;;4.57;1.42;;;;;;;;;;4987938;28;20092;-61
2021/09/13 01:24:37;;;;;;;3.63;1.70;;;;;;;;;;4987000;28;20030;-60
2021/09/13 01:27:04;;;;;;;3.15;1.23;;;;;;;;;;4986594;28;20041;-59
2021/09/13 01:34:40;;;;;;;4.32;1.20;;;;;;;;;;5608330;23;21497;-61
2021/09/13 01:39:34;;;;;;;4.30;1.75;;;;;;;;;;4951835;28;20093;-59
2021/09/13 01:42:00;;;;;;;4.85;1.67;;;;;;;;;;4968373;28;20125;-58
2021/09/13 01:44:26;;;;;;;5.40;1.60;;;;;;;;;;4963465;28;20496;-57
2021/09/13 01:46:52;;;;;;;4.65;1.60;;;;;;;;;;4952282;28;20074;-58
2021/09/13 01:49:18;;;;;;;3.60;1.60;;;;;;;;;;4950330;28;20051;-62
2021/09/13 01:51:44;;;;;;;3.95;1.75;;;;;;;;;;4949465;28;20137;-56
2021/09/13 01:54:09;;;;;;;5.80;2.80;;;;;;;;;;4950601;28;20036;-56
2021/09/13 01:56:35;;;;;;;4.07;1.67;;;;;;;;;;4939238;28;20031;-55
2021/09/13 01:59:01;;;;;;;4.53;1.55;;;;;;;;;;4948427;28;20050;-56
2021/09/13 02:01:27;;;;;;;4.00;1.90;;;;;;;;;;4947776;28;20050;-59
2021/09/13 02:03:53;;;;;;;5.03;1.98;;;;;;;;;;4948938;28;20058;-57
2021/09/13 02:06:19;;;;;;;7.05;2.40;;;;;;;;;;4950017;28;20178;-56
2021/09/13 02:08:45;;;;;;;5.28;2.17;;;;;;;;;;4948983;28;20043;-57
2021/09/13 02:11:11;;;;;;;7.05;2.38;;;;;;;;;;4949221;28;20054;-57
2021/09/13 02:13:37;;;;;;;6.85;2.40;;;;;;;;;;4958607;28;20043;-55
2021/09/13 02:16:04;;;;;;;7.10;2.60;;;;;;;;;;4969720;28;21954;-57
2021/09/13 02:18:30;;;;;;;5.45;2.63;;;;;;;;;;4969425;28;20172;-57
2021/09/13 02:20:56;;;;;;;11.68;2.30;;;;;;;;;;4968831;28;20034;-57
2021/09/13 02:23:21;;;;;;;6.65;2.40;;;;;;;;;;4968349;28;20510;-57
2021/09/13 02:25:47;;;;;;;5.22;2.03;;;;;;;;;;4957408;28;20070;-56
2021/09/13 02:28:13;;;;;;;5.03;2.50;;;;;;;;;;4970343;28;20038;-57
2021/09/13 02:30:39;;;;;;;5.63;2.10;;;;;;;;;;4968845;28;20045;-55
2021/09/13 02:33:05;;;;;;;6.28;2.17;;;;;;;;;;4969764;28;20049;-53
2021/09/13 02:35:31;;;;;;;4.10;2.20;;;;;;;;;;4969969;28;20054;-54
2021/09/13 02:37:57;;;;;;;11.98;2.70;;;;;;;;;;4969669;28;20051;-57
2021/09/13 02:40:23;;;;;;;4.20;2.20;;;;;;;;;;4969410;28;20499;-57
2021/09/13 02:42:49;;;;;;;5.93;2.75;;;;;;;;;;4970020;28;20065;-56
2021/09/13 02:45:15;;;;;;;5.85;2.30;;;;;;;;;;4970509;28;20035;-56
2021/09/13 02:47:41;;;;;;;4.47;2.55;;;;;;;;;;4968427;28;20443;-57
2021/09/13 02:50:08;;;;;;;5.05;2.25;;;;;;;;;;4968629;28;20139;-57
2021/09/13 02:52:34;;;;;;;5.95;2.35;;;;;;;;;;4967498;28;20498;-57
2021/09/13 02:55:00;;;;;;;6.38;2.72;;;;;;;;;;4969761;28;20109;-57
2021/09/13 02:57:26;;;;;;;6.70;2.55;;;;;;;;;;4968467;28;20504;-56
2021/09/13 02:59:52;;;;;;;6.47;3.00;;;;;;;;;;4967834;28;20046;-57
2021/09/13 03:02:18;;;;;;;4.75;2.67;;;;;;;;;;4966580;28;20061;-57
2021/09/13 03:04:44;;;;;;;5.88;2.13;;;;;;;;;;4969772;28;20141;-56
2021/09/13 03:07:10;;;;;;;7.53;2.55;;;;;;;;;;4968602;28;20098;-57
2021/09/13 03:09:36;;;;;;;4.90;2.17;;;;;;;;;;4970404;28;20546;-57
2021/09/13 03:12:04;;;;;;;5.95;2.30;;;;;;;;;;4971063;28;20038;-56
2021/09/13 03:14:30;;;;;;;6.60;2.10;;;;;;;;;;4966992;28;20049;-57
2021/09/13 03:16:56;;;;;;;7.35;1.90;;;;;;;;;;4956137;28;20046;-57
2021/09/13 03:19:22;;;;;;;4.57;2.00;;;;;;;;;;4946863;28;20492;-58
2021/09/13 03:21:47;;;;;;;7.63;2.30;;;;;;;;;;4949228;28;20043;-57
2021/09/13 03:24:13;;;;;;;6.47;2.28;;;;;;;;;;4949650;28;20110;-57
2021/09/13 03:26:39;;;;;;;4.43;2.00;;;;;;;;;;4950481;28;20048;-56
2021/09/13 03:29:05;;;;;;;5.28;2.25;;;;;;;;;;4948384;28;20715;-57
2021/09/13 03:31:31;;;;;;;7.30;2.60;;;;;;;;;;4964172;28;20054;-58
2021/09/13 03:33:57;;;;;;;5.85;2.13;;;;;;;;;;4970357;28;20042;-57
2021/09/13 03:36:22;;;;;;;5.18;1.90;;;;;;;;;;4967489;28;20791;-57
2021/09/13 03:38:48;;;;;;;3.38;1.42;;;;;;;;;;4967590;28;20113;-57
2021/09/13 03:41:14;;;;;;;3.95;1.75;;;;;;;;;;4970026;28;20038;-58
2021/09/13 03:43:40;;;;;;;3.40;1.38;;;;;;;;;;4968582;28;20134;-57
2021/09/13 03:46:05;;;;;;;4.25;1.42;;;;;;;;;;4968823;28;20069;-57
2021/09/13 03:48:31;;;;;;;4.25;1.30;;;;;;;;;;4951393;28;20483;-57
2021/09/13 03:50:57;;;;;;;4.45;1.15;;;;;;;;;;4948178;28;20558;-58
2021/09/13 03:53:23;;;;;;;7.78;2.05;;;;;;;;;;4948477;28;20098;-56
2021/09/13 03:55:49;;;;;;;7.78;1.90;;;;;;;;;;4948566;28;20063;-57
2021/09/13 03:58:15;;;;;;;3.63;1.35;;;;;;;;;;4948393;28;20043;-56
2021/09/13 04:00:41;;;;;;;4.82;1.60;;;;;;;;;;4950866;28;20372;-56
2021/09/13 04:03:11;;;;;;;3.38;1.25;;;;;;;;;;4953612;28;20057;-57
2021/09/13 04:05:42;;;;;;;3.28;1.35;;;;;;;;;;4953684;28;20347;-57
2021/09/13 04:08:18;;;;;;;3.67;1.35;;;;;;;;;;4952249;28;20039;-57
2021/09/13 04:11:03;;;;;;;3.88;1.52;;;;;;;;;;4972656;28;20042;-59
2021/09/13 04:13:29;;;;;;;3.05;1.42;;;;;;;;;;4971647;28;20106;-57
2021/09/13 04:15:55;;;;;;;3.30;1.40;;;;;;;;;;4971520;28;20122;-58
2021/09/13 04:18:21;;;;;;;3.00;1.50;;;;;;;;;;4972421;28;20047;-57
2021/09/13 04:20:47;;;;;;;3.92;1.90;;;;;;;;;;4972360;28;20097;-58
2021/09/13 04:23:12;;;;;;;3.65;1.65;;;;;;;;;;4971947;28;20134;-58
2021/09/13 04:25:38;;;;;;;4.65;2.00;;;;;;;;;;4970753;28;20448;-58
2021/09/13 04:28:04;;;;;;;3.65;1.60;;;;;;;;;;4971193;28;20049;-58
2021/09/13 04:30:30;;;;;;;4.43;1.77;;;;;;;;;;4969676;28;20070;-58
2021/09/13 04:32:56;;;;;;;4.05;1.75;;;;;;;;;;4970013;28;20053;-57
2021/09/13 04:35:21;;;;;;;5.78;1.73;;;;;;;;;;4971426;28;20087;-58
2021/09/13 04:37:47;;;;;;;4.72;1.70;;;;;;;;;;4972891;28;20185;-59
2021/09/13 04:40:14;;;;;;;3.92;1.63;;;;;;;;;;4970950;28;20051;-58
2021/09/13 04:42:40;;;;;;;3.80;1.83;;;;;;;;;;4971461;28;20053;-59
2021/09/13 04:45:07;;;;;;;7.97;2.20;;;;;;;;;;4971816;28;20507;-59
2021/09/13 04:47:32;;;;;;;4.30;2.00;;;;;;;;;;4969629;28;20046;-59
2021/09/13 04:49:58;;;;;;;3.78;1.73;;;;;;;;;;4971040;28;20058;-59
2021/09/13 04:52:24;;;;;;;5.38;1.70;;;;;;;;;;4970244;28;20538;-59
2021/09/13 04:54:50;;;;;;;5.55;1.77;;;;;;;;;;4971562;28;20930;-58
2021/09/13 04:57:15;;;;;;;4.43;1.73;;;;;;;;;;4951790;28;20039;-59
2021/09/13 04:59:41;;;;;;;4.07;1.60;;;;;;;;;;4970571;28;20798;-59
2021/09/13 05:02:07;;;;;;;4.80;1.80;;;;;;;;;;4971436;28;20050;-58
2021/09/13 05:04:33;;;;;;;3.88;1.70;;;;;;;;;;4969201;28;20042;-58
2021/09/13 05:06:59;;;;;;;3.67;1.38;;;;;;;;;;4970769;28;20093;-59
2021/09/13 05:09:26;;;;;;;3.60;1.38;;;;;;;;;;4984646;28;20084;-59
2021/09/13 05:11:52;;;;;;;4.53;1.60;;;;;;;;;;4969350;28;20085;-59
2021/09/13 05:14:18;;;;;;;5.93;1.63;;;;;;;;;;4969734;28;20141;-60
2021/09/13 05:16:44;;;;;;;4.57;1.83;;;;;;;;;;4970888;28;20110;-58
2021/09/13 05:19:10;;;;;;;4.28;1.80;;;;;;;;;;4969112;28;20118;-58
2021/09/13 05:21:39;;;;;;;4.18;1.77;;;;;;;;;;4949068;28;20845;-59
2021/09/13 05:24:06;;;;;;;4.15;1.70;;;;;;;;;;4955960;28;20058;-59
2021/09/13 05:26:32;;;;;;;4.78;2.13;;;;;;;;;;4969881;28;20081;-57
2021/09/13 05:28:59;;;;;;;4.57;2.10;;;;;;;;;;4969619;28;20698;-58
2021/09/13 05:31:25;;;;;;;8.27;2.20;;;;;;;;;;4969790;28;20110;-59
2021/09/13 05:33:51;;;;;;;4.57;2.00;;;;;;;;;;4969934;28;20121;-59
2021/09/13 05:36:17;;;;;;;5.10;2.10;;;;;;;;;;4971325;28;22003;-59
2021/09/13 05:38:43;;;;;;;4.25;2.05;;;;;;;;;;4971352;28;20057;-58
2021/09/13 05:41:08;;;;;;;4.55;1.70;;;;;;;;;;4970064;28;20934;-59
2021/09/13 05:43:34;;;;;;;4.43;1.73;;;;;;;;;;4969390;28;20487;-58
2021/09/13 05:46:00;;;;;;;5.28;1.90;;;;;;;;;;4969882;28;20145;-59
2021/09/13 05:48:26;;;;;;;4.30;1.60;;;;;;;;;;4968475;28;20031;-59
2021/09/13 05:50:52;;;;;;;3.88;1.60;;;;;;;;;;4970413;28;20031;-59
2021/09/13 05:53:18;;;;;;;5.90;1.90;;;;;;;;;;4969484;28;20049;-59
2021/09/13 05:55:43;;;;;;;4.45;1.52;;;;;;;;;;4971318;28;20042;-59
2021/09/13 05:58:10;;;;;;;3.45;1.35;;;;;;;;;;4970151;28;20054;-58
2021/09/13 06:00:36;;;;;;;3.30;1.30;;;;;;;;;;4968391;28;20038;-58
2021/09/13 06:03:01;;;;;;;3.42;1.40;;;;;;;;;;4969297;28;20371;-59
2021/09/13 06:05:27;;;;;;;3.30;1.40;;;;;;;;;;4970551;28;20045;-58
2021/09/13 06:07:53;;;;;;;4.07;1.60;;;;;;;;;;4969823;28;20042;-59
2021/09/13 06:10:19;;;;;;;4.25;1.30;;;;;;;;;;4967378;28;20088;-59
2021/09/13 06:12:45;;;;;;;5.05;1.30;;;;;;;;;;4966867;28;20516;-59
2021/09/13 06:15:10;;;;;;;6.05;1.27;;;;;;;;;;4968601;28;20169;-59
2021/09/13 06:17:36;;;;;;;3.45;1.33;;;;;;;;;;4968408;28;20034;-60
2021/09/13 06:20:03;;;;;;;3.72;1.42;;;;;;;;;;4968034;28;20054;-59
2021/09/13 06:22:29;;;;;;;3.90;1.70;;;;;;;;;;4968172;28;20522;-58
2021/09/13 06:24:54;;;;;;;3.78;1.40;;;;;;;;;;4968887;28;20043;-58
2021/09/13 06:27:20;;;;;;;3.58;1.10;;;;;;;;;;4968517;28;20109;-59
2021/09/13 06:29:46;;;;;;;4.22;1.30;;;;;;;;;;4969725;28;20058;-58
2021/09/13 06:32:12;;;;;;;3.63;1.20;;;;;;;;;;4969903;28;20038;-59
2021/09/13 06:34:37;;;;;;;3.63;1.08;;;;;;;;;;4968549;28;20883;-59
2021/09/13 06:37:03;;;;;;;3.88;1.55;;;;;;;;;;4967626;28;20043;-59
2021/09/13 06:39:29;;;;;;;4.82;1.55;;;;;;;;;;4968104;28;20038;-59
2021/09/13 06:41:55;;;;;;;6.30;1.40;;;;;;;;;;4969516;28;20051;-59
2021/09/13 06:44:23;;;;;;;3.30;1.48;;;;;;;;;;4966933;28;20050;-59
2021/09/13 06:49:50;;;;;;;2.90;1.10;;;;;;;;;;4922926;28;20086;-61
2021/09/13 06:52:16;;;;;;;3.28;1.13;;;;;;;;;;4949590;28;20047;-60
2021/09/13 06:54:42;;;;;;;3.38;1.30;;;;;;;;;;4949793;28;20051;-60
2021/09/13 06:57:07;;;;;;;5.05;1.50;;;;;;;;;;4949325;28;20039;-60
2021/09/13 06:59:33;;;;;;;3.33;1.40;;;;;;;;;;4950638;28;20512;-60
2021/09/13 07:01:59;;;;;;;4.53;1.50;;;;;;;;;;4950834;28;20567;-60
2021/09/13 07:04:25;;;;;;;3.55;1.55;;;;;;;;;;4948385;28;20125;-60
2021/09/13 07:06:52;;;;;;;7.47;1.73;;;;;;;;;;4949563;28;20039;-60
2021/09/13 07:09:18;;;;;;;4.32;1.75;;;;;;;;;;4949122;28;20090;-61
2021/09/13 07:11:44;;;;;;;5.57;1.80;;;;;;;;;;4969555;28;20045;-61
2021/09/13 07:14:10;;;;;;;8.23;1.70;;;;;;;;;;4969308;28;20407;-59
2021/09/13 07:16:36;;;;;;;3.85;1.67;;;;;;;;;;4959669;28;20097;-61
2021/09/13 07:19:02;;;;;;;4.45;1.63;;;;;;;;;;4959391;28;20415;-60
2021/09/13 07:21:28;;;;;;;3.42;1.48;;;;;;;;;;4948875;28;20047;-60
2021/09/13 07:23:54;;;;;;;3.20;1.23;;;;;;;;;;4949623;28;20072;-60
2021/09/13 07:26:20;;;;;;;5.38;1.73;;;;;;;;;;4947486;28;20051;-61
2021/09/13 07:28:46;;;;;;;4.05;1.67;;;;;;;;;;4948666;28;20043;-60
2021/09/13 07:31:12;;;;;;;5.22;1.65;;;;;;;;;;4948728;28;20039;-61
2021/09/13 07:33:37;;;;;;;3.42;1.58;;;;;;;;;;4947886;28;20922;-61
2021/09/13 07:36:03;;;;;;;5.70;1.60;;;;;;;;;;4951048;28;20038;-61
2021/09/13 07:38:29;;;;;;;3.35;1.33;;;;;;;;;;4954387;28;20102;-61
2021/09/13 07:40:55;;;;;;;3.47;1.40;;;;;;;;;;4947177;28;20042;-61
2021/09/13 07:43:21;;;;;;;4.20;1.38;;;;;;;;;;4948098;28;20059;-61
2021/09/13 07:45:47;;;;;;;7.60;1.75;;;;;;;;;;4949067;28;20063;-61
2021/09/13 07:48:12;;;;;;;4.22;1.38;;;;;;;;;;4949675;28;20046;-61
2021/09/13 07:50:38;;;;;;;3.65;1.50;;;;;;;;;;4948488;28;20047;-60
2021/09/13 07:53:04;;;;;;;3.35;1.40;;;;;;;;;;4956486;28;20039;-61
2021/09/13 07:55:30;;;;;;;3.75;1.50;;;;;;;;;;4948144;28;20526;-61
2021/09/13 07:57:56;;;;;;;5.50;1.60;;;;;;;;;;4950388;28;20130;-61
2021/09/13 08:00:21;;;;;;;4.80;1.75;;;;;;;;;;4947370;28;20067;-60
2021/09/13 08:02:47;;;;;;;3.78;1.50;;;;;;;;;;4950845;28;20170;-61
2021/09/13 08:05:13;;;;;;;4.07;1.58;;;;;;;;;;4949761;28;20047;-60
2021/09/13 08:07:39;;;;;;;5.15;1.40;;;;;;;;;;4955104;28;20059;-61
2021/09/13 08:10:05;;;;;;;4.15;1.70;;;;;;;;;;4949546;28;20043;-60
2021/09/13 08:12:31;;;;;;;3.65;1.65;;;;;;;;;;4959210;28;20078;-61
2021/09/13 08:14:56;;;;;;;6.03;1.38;;;;;;;;;;4969072;28;20464;-61
2021/09/13 08:17:22;;;;;;;3.17;1.35;;;;;;;;;;4966514;28;20050;-61
2021/09/13 08:19:48;;;;;;;3.13;1.30;;;;;;;;;;4968925;28;20042;-61
2021/09/13 08:22:14;;;;;;;4.97;1.30;;;;;;;;;;4969620;28;20049;-61
2021/09/13 08:24:40;;;;;;;2.85;1.10;;;;;;;;;;4967210;28;20031;-61
2021/09/13 08:27:05;;;;;;;3.42;1.20;;;;;;;;;;4951399;28;20715;-61
2021/09/13 08:29:32;;;;;;;3.28;1.30;;;;;;;;;;4968260;28;20038;-61
2021/09/13 08:31:58;;;;;;;3.15;1.17;;;;;;;;;;4968151;28;20043;-61
2021/09/13 08:34:24;;;;;;;3.63;1.35;;;;;;;;;;4949665;28;20050;-61
2021/09/13 08:36:50;;;;;;;2.72;1.20;;;;;;;;;;4967469;28;20047;-61
2021/09/13 08:39:16;;;;;;;3.50;1.38;;;;;;;;;;4966669;28;20059;-61
2021/09/13 08:41:42;;;;;;;4.07;1.60;;;;;;;;;;4967390;28;20431;-61
2021/09/13 08:44:09;;;;;;;3.05;1.25;;;;;;;;;;4965986;28;20062;-61
2021/09/13 08:46:45;;;;;;;3.70;1.42;;;;;;;;;;4966822;28;20117;-60
2021/09/13 08:49:25;;;;;;;4.20;1.30;;;;;;;;;;4970065;28;20035;-60
2021/09/13 08:51:51;;;;;;;5.45;1.30;;;;;;;;;;4971287;28;20038;-60
2021/09/13 08:54:17;;;;;;;4.97;1.52;;;;;;;;;;4970528;28;20333;-61
2021/09/13 08:56:46;;;;;;;5.07;1.67;;;;;;;;;;4970029;28;21750;-61
2021/09/13 08:59:17;;;;;;;3.72;1.42;;;;;;;;;;4969942;28;20039;-61
2021/09/13 09:01:43;;;;;;;3.83;1.55;;;;;;;;;;4968312;28;20039;-60
2021/09/13 09:04:12;;;;;;;3.38;1.50;;;;;;;;;;4970872;28;20066;-60
2021/09/13 09:06:40;;;;;;;3.58;1.48;;;;;;;;;;4953475;28;20043;-61
2021/09/13 09:09:07;;;;;;;4.47;1.83;;;;;;;;;;4949301;28;20043;-61
2021/09/13 09:12:13;;;;;;;3.35;1.40;;;;;;;;;;4949616;28;20422;-61
2021/09/13 09:14:43;;;;;;;4.53;1.70;;;;;;;;;;4935517;28;20035;-60
2021/09/13 09:17:25;;;;;;;4.15;1.63;;;;;;;;;;4954764;28;20046;-60
2021/09/13 09:20:04;;;;;;;3.95;1.60;;;;;;;;;;4959621;28;21984;-61
2021/09/13 09:22:32;;;;;;;3.63;1.50;;;;;;;;;;4947276;28;20066;-60
2021/09/13 09:25:23;;;;;;;4.07;1.50;;;;;;;;;;5565416;22;20076;-60
2021/09/13 09:30:38;;;;;;;4.13;1.83;;;;;;;;;;5822163;23;20115;-58
2021/09/13 09:33:06;;;;;;;5.47;1.75;;;;;;;;;;4991560;28;20050;-60
2021/09/13 09:41:15;;;;;;;3.78;1.63;;;;;;;;;;5776333;22;20122;-58
2021/09/13 09:44:01;;;;;;;4.07;1.70;;;;;;;;;;4962841;28;20158;-60
2021/09/13 09:47:13;;;;;;;4.75;1.88;;;;;;;;;;5039064;28;20095;-60
2021/09/13 09:50:00;;;;;;;3.92;1.75;;;;;;;;;;4929221;28;20038;-60
2021/09/13 09:52:45;;;;;;;3.95;1.60;;;;;;;;;;4954704;28;20041;-60
2021/09/13 09:55:13;;;;;;;4.32;1.63;;;;;;;;;;4957122;28;20059;-60
2021/09/13 09:57:40;;;;;;;3.33;1.52;;;;;;;;;;4952051;28;20047;-60
2021/09/13 10:00:27;;;;;;;3.78;1.55;;;;;;;;;;4950827;28;20046;-60
2021/09/13 10:02:54;;;;;;;3.83;1.60;;;;;;;;;;4951422;28;20054;-60
2021/09/13 10:05:21;;;;;;;4.85;1.60;;;;;;;;;;4951161;28;20538;-60
2021/09/13 10:07:48;;;;;;;4.10;1.42;;;;;;;;;;4951951;28;20043;-60
2021/09/13 10:10:14;;;;;;;3.72;1.80;;;;;;;;;;4951178;28;20047;-59
2021/09/13 10:12:40;;;;;;;3.63;1.80;;;;;;;;;;4951036;28;20049;-61
2021/09/13 10:15:06;;;;;;;4.18;1.95;;;;;;;;;;4952016;28;20039;-60
2021/09/13 10:17:33;;;;;;;3.83;1.65;;;;;;;;;;4966320;28;20861;-60
2021/09/13 10:20:00;;;;;;;3.58;1.63;;;;;;;;;;4968591;28;20034;-59
2021/09/13 10:22:27;;;;;;;3.78;1.65;;;;;;;;;;5014073;28;20045;-58
2021/09/13 10:24:53;;;;;;;4.50;2.10;;;;;;;;;;5017379;28;20077;-59
2021/09/13 10:27:20;;;;;;;4.40;1.77;;;;;;;;;;5018764;28;20229;-59
2021/09/13 10:29:46;;;;;;;5.85;1.88;;;;;;;;;;5018904;28;20036;-59
2021/09/13 10:32:13;;;;;;;4.35;1.90;;;;;;;;;;5018899;28;20954;-60
2021/09/13 10:34:42;;;;;;;4.63;2.22;;;;;;;;;;5045873;28;20044;-59
2021/09/13 10:37:24;;;;;;;5.53;2.40;;;;;;;;;;5056485;28;20040;-59
2021/09/13 10:40:00;;;;;;;4.32;1.95;;;;;;;;;;5057083;28;20047;-59
2021/09/13 10:42:29;;;;;;;7.47;1.63;;;;;;;;;;5056398;28;20063;-59
2021/09/13 10:45:11;;;;;;;3.85;1.75;;;;;;;;;;5056665;28;20126;-58
2021/09/13 10:50:45;;;;;;;6.18;2.20;;;;;;;;;;5008063;28;20061;-60
2021/09/13 10:53:17;;;;;;;4.82;2.13;;;;;;;;;;5005785;28;20209;-61
2021/09/13 10:55:44;;;;;;;4.30;2.00;;;;;;;;;;4983686;28;20066;-60
2021/09/13 10:58:17;;;;;;;5.10;2.28;;;;;;;;;;4983377;28;20752;-60
2021/09/13 11:00:43;;;;;;;4.17;1.67;;;;;;;;;;4984591;28;20062;-60
2021/09/13 11:03:28;;;;;;;3.63;1.77;;;;;;;;;;4984997;28;20387;-60
2021/09/13 11:06:06;;;;;;;4.53;2.40;;;;;;;;;;4984901;28;20153;-59
2021/09/13 11:08:49;;;;;;;5.20;2.17;;;;;;;;;;4985701;28;20487;-59
2021/09/13 11:11:16;;;;;;;3.95;1.90;;;;;;;;;;4985725;28;20077;-60
2021/09/13 11:13:43;;;;;;;4.03;1.67;;;;;;;;;;4984976;28;20076;-60
2021/09/13 11:16:09;;;;;;;4.47;1.80;;;;;;;;;;4984548;28;20206;-60
2021/09/13 11:18:36;;;;;;;5.38;2.10;;;;;;;;;;4983845;28;20916;-59
2021/09/13 11:21:34;;;;;;;4.93;2.22;;;;;;;;;;4984534;28;20030;-60
2021/09/13 11:24:07;;;;;;;4.95;2.03;;;;;;;;;;4925575;28;20056;-60
2021/09/13 11:26:33;;;;;;;6.87;1.80;;;;;;;;;;4983723;28;20061;-59
2021/09/13 11:29:04;;;;;;;6.30;2.00;;;;;;;;;;4987229;28;20518;-60
2021/09/13 11:31:37;;;;;;;4.93;2.17;;;;;;;;;;4997831;28;20038;-60
2021/09/13 11:34:06;;;;;;;4.40;1.85;;;;;;;;;;5002940;28;20101;-59
2021/09/13 11:36:32;;;;;;;4.35;1.90;;;;;;;;;;4991251;28;20631;-59
2021/09/13 11:39:09;;;;;;;3.72;1.70;;;;;;;;;;5050936;28;20040;-60
2021/09/13 11:41:35;;;;;;;4.53;1.80;;;;;;;;;;5056457;28;20049;-60
2021/09/13 11:44:04;;;;;;;3.78;1.60;;;;;;;;;;5057098;28;20540;-60
2021/09/13 11:46:30;;;;;;;4.28;1.70;;;;;;;;;;5057555;28;20164;-60
2021/09/13 11:49:15;;;;;;;5.95;1.70;;;;;;;;;;5057875;28;20033;-60
2021/09/13 11:52:00;;;;;;;3.22;1.40;;;;;;;;;;5058877;28;20040;-60
2021/09/13 11:54:26;;;;;;;5.25;1.75;;;;;;;;;;5059559;28;20094;-61
2021/09/13 11:56:51;;;;;;;4.82;1.65;;;;;;;;;;5057657;28;20029;-60
2021/09/13 11:59:21;;;;;;;5.20;2.00;;;;;;;;;;5058164;28;20070;-60
2021/09/13 12:02:22;;;;;;;4.82;1.90;;;;;;;;;;5069901;28;20024;-61
2021/09/13 12:05:08;;;;;;;4.85;2.00;;;;;;;;;;5005322;28;20060;-60
2021/09/13 12:07:34;;;;;;;4.60;2.25;;;;;;;;;;5010367;28;20041;-60
2021/09/13 12:10:00;;;;;;;4.22;2.20;;;;;;;;;;5012981;28;20099;-59
2021/09/13 12:12:26;;;;;;;9.00;2.35;;;;;;;;;;5015922;28;20108;-60
2021/09/13 12:14:53;;;;;;;4.15;2.00;;;;;;;;;;5012307;28;20084;-59
2021/09/13 12:17:20;;;;;;;4.05;1.95;;;;;;;;;;5011172;28;20044;-59
2021/09/13 12:19:48;;;;;;;4.65;2.13;;;;;;;;;;5011468;28;20045;-60
2021/09/13 12:22:14;;;;;;;4.63;1.90;;;;;;;;;;5011874;28;20108;-59
2021/09/13 12:24:42;;;;;;;5.72;2.10;;;;;;;;;;5013079;28;20080;-59
2021/09/13 12:27:15;;;;;;;6.13;2.75;;;;;;;;;;5018307;28;20107;-59
2021/09/13 12:29:50;;;;;;;5.20;2.03;;;;;;;;;;4991639;28;20042;-59
2021/09/13 12:32:22;;;;;;;4.80;2.22;;;;;;;;;;5015142;28;20075;-60
2021/09/13 12:34:54;;;;;;;8.30;2.50;;;;;;;;;;5000813;28;20049;-59
2021/09/13 12:37:27;;;;;;;6.82;2.42;;;;;;;;;;5060243;28;21877;-60
2021/09/13 12:39:59;;;;;;;5.28;2.42;;;;;;;;;;5058698;28;20067;-59
2021/09/13 12:42:26;;;;;;;5.70;2.53;;;;;;;;;;5058979;28;20707;-60
2021/09/13 12:45:01;;;;;;;5.70;2.75;;;;;;;;;;5059510;28;20044;-60
2021/09/13 12:47:27;;;;;;;5.05;2.28;;;;;;;;;;5059403;28;20109;-59
2021/09/13 12:49:53;;;;;;;5.47;2.50;;;;;;;;;;5059432;28;20040;-59
2021/09/13 12:52:20;;;;;;;4.70;2.15;;;;;;;;;;5059444;28;20044;-59
2021/09/13 12:54:46;;;;;;;4.72;2.20;;;;;;;;;;5059225;28;20123;-58
2021/09/13 12:57:12;;;;;;;4.60;2.10;;;;;;;;;;5062069;28;21113;-59
2021/09/13 12:59:38;;;;;;;7.50;2.55;;;;;;;;;;5059978;28;20036;-58
2021/09/13 13:02:13;;;;;;;4.30;2.28;;;;;;;;;;5060949;28;20094;-59
2021/09/13 13:04:39;;;;;;;5.50;2.63;;;;;;;;;;5060750;28;20052;-58
2021/09/13 13:07:06;;;;;;;5.28;2.80;;;;;;;;;;5063480;28;20051;-59
2021/09/13 13:09:32;;;;;;;5.30;2.42;;;;;;;;;;5033486;28;20047;-60
2021/09/13 13:11:58;;;;;;;7.68;2.78;;;;;;;;;;5060398;28;20080;-60
2021/09/13 13:14:24;;;;;;;4.97;2.33;;;;;;;;;;5059810;28;20527;-61
2021/09/13 13:16:50;;;;;;;7.68;2.72;;;;;;;;;;5037592;28;20041;-59
2021/09/13 13:19:16;;;;;;;5.88;2.85;;;;;;;;;;5060615;28;20063;-61
2021/09/13 13:21:44;;;;;;;6.47;3.10;;;;;;;;;;5057337;28;20041;-60
2021/09/13 13:24:12;;;;;;;5.95;2.72;;;;;;;;;;5059266;28;20060;-59
2021/09/13 13:26:39;;;;;;;8.05;2.88;;;;;;;;;;5060182;28;20223;-60
2021/09/13 13:29:06;;;;;;;7.03;3.55;;;;;;;;;;5059973;28;20060;-60
2021/09/13 13:31:32;;;;;;;11.27;3.33;;;;;;;;;;5058823;28;20178;-60
2021/09/13 13:33:57;;;;;;;8.52;3.42;;;;;;;;;;5058980;28;20761;-60
2021/09/13 13:36:24;;;;;;;5.25;2.70;;;;;;;;;;5058482;28;20101;-59
2021/09/13 13:38:50;;;;;;;6.10;2.63;;;;;;;;;;5059644;28;20086;-60
2021/09/13 13:41:16;;;;;;;4.38;2.22;;;;;;;;;;5059892;28;20528;-60
2021/09/13 13:43:42;;;;;;;8.70;2.80;;;;;;;;;;5058762;28;20061;-60
2021/09/13 13:46:08;;;;;;;9.60;2.33;;;;;;;;;;5058849;28;20043;-61
2021/09/13 13:48:34;;;;;;;6.03;2.42;;;;;;;;;;5057134;28;20123;-61
2021/09/13 13:51:01;;;;;;;4.75;2.22;;;;;;;;;;5061337;28;20048;-60
2021/09/13 13:53:28;;;;;;;4.68;2.17;;;;;;;;;;5059217;28;20799;-60
2021/09/13 13:55:53;;;;;;;5.70;2.13;;;;;;;;;;5059500;28;20047;-59
2021/09/13 13:58:19;;;;;;;8.23;2.15;;;;;;;;;;5059043;28;20044;-59
2021/09/13 14:00:45;;;;;;;7.57;2.50;;;;;;;;;;5059239;28;20115;-60
2021/09/13 14:03:13;;;;;;;9.57;2.70;;;;;;;;;;5055693;28;20067;-59
2021/09/13 14:05:39;;;;;;;8.20;2.80;;;;;;;;;;5059670;28;20040;-58
2021/09/13 14:08:05;;;;;;;10.18;2.83;;;;;;;;;;5058046;28;20048;-59
2021/09/13 14:10:31;;;;;;;5.80;2.95;;;;;;;;;;5058277;28;20048;-59
2021/09/13 14:12:58;;;;;;;11.98;3.10;;;;;;;;;;5058201;28;20658;-59
2021/09/13 14:15:25;;;;;;;8.50;3.55;;;;;;;;;;5056766;28;20036;-59
2021/09/13 14:17:51;;;;;;;15.18;3.38;;;;;;;;;;5058276;28;20051;-58
2021/09/13 14:20:17;;;;;;;8.82;2.90;;;;;;;;;;5059915;28;20412;-59
2021/09/13 14:22:43;;;;;;;6.95;3.60;;;;;;;;;;5058915;28;20044;-59
2021/09/13 14:25:09;;;;;;;6.40;3.08;;;;;;;;;;5058628;28;20040;-59
2021/09/13 14:27:34;;;;;;;7.32;3.33;;;;;;;;;;5055769;28;20071;-58
2021/09/13 14:30:00;;;;;;;10.07;4.13;;;;;;;;;;5057933;28;20032;-60
2021/09/13 14:32:26;;;;;;;7.35;3.85;;;;;;;;;;5056934;28;20528;-59
2021/09/13 14:34:52;;;;;;;7.70;3.95;;;;;;;;;;5058199;28;20032;-58
2021/09/13 14:37:18;;;;;;;8.57;3.60;;;;;;;;;;5057887;28;20032;-58
2021/09/13 14:39:43;;;;;;;6.85;3.25;;;;;;;;;;5056940;28;20374;-59
2021/09/13 14:42:10;;;;;;;9.25;3.75;;;;;;;;;;5059937;28;20052;-59
2021/09/13 14:44:36;;;;;;;8.43;3.53;;;;;;;;;;5056743;28;20052;-59
2021/09/13 14:47:02;;;;;;;6.93;3.70;;;;;;;;;;5057926;28;20036;-59
2021/09/13 14:49:28;;;;;;;8.55;3.65;;;;;;;;;;5056786;28;20132;-59
2021/09/13 14:51:53;;;;;;;7.43;3.35;;;;;;;;;;5057228;28;20036;-59
2021/09/13 14:54:19;;;;;;;6.82;3.58;;;;;;;;;;5029802;28;20044;-60
2021/09/13 14:56:45;;;;;;;10.30;3.38;;;;;;;;;;5056186;28;20051;-59
2021/09/13 14:59:11;;;;;;;10.00;3.03;;;;;;;;;;5058888;28;20051;-60
2021/09/13 15:01:37;;;;;;;6.63;3.10;;;;;;;;;;5059722;28;20041;-60
2021/09/13 15:04:04;;;;;;;6.90;3.35;;;;;;;;;;5056755;28;20556;-60
2021/09/13 15:06:35;;;;;;;6.80;3.20;;;;;;;;;;5058478;28;20044;-59
2021/09/13 15:09:02;;;;;;;6.90;3.38;;;;;;;;;;5056604;28;20036;-60